KADG/ADG METAR and TAF weather

Enter ICAO airport designator
Station Type Date Time Source
KADG METAR 2019/04/22 19:53 UTC NOAA

KADG 221953Z AUTO 19013KT 10SM CLR 23/06 A3011 RMK AO2 SLP197 T02280056 TSNO


Station Type Date Time Source
KADG Decoded METAR 2019/04/22 19:53 UTC NOAA

ADRIAN LENAWEE COUNTY AIRPORT, MI, United States (KADG) 41-52N 84-05W 241M
Apr 22, 2019 - 03:53 PM EDT / 2019.04.22 1953 UTC
Wind: from the S (190 degrees) at 15 MPH (13 KT):0
Visibility: 10 mile(s):0
Sky conditions: clear
Temperature: 73.0 F (22.8 C)
Dew Point: 42.1 F (5.6 C)
Relative Humidity: 32%
Pressure (altimeter): 30.11 in. Hg (1019 hPa)
ob: KADG 221953Z AUTO 19013KT 10SM CLR 23/06 A3011 RMK AO2 SLP197 T02280056 TSNO
cycle: 20

Station Type Date Time Source
KADG TAF UTC NOAA

Error!

Example: see airport list